Weather History for KBAX - January, 2012

Change the Weather History Date:

Friday, January 6, 2012

  Actual Average (KP58) Record (KP58)
Temperature  
Mean Temperature 42 °F -  
Max Temperature 48 °F 31 °F 53 °F (1998)
Min Temperature 35 °F 21 °F 5 °F (2015)
Degree Days  
Heating Degree Days 24    
Moisture  
Dew Point 33 °F    
Average Humidity 71    
Maximum Humidity 87    
Minimum Humidity 62    
Precipitation  
Precipitation 0.00 in - - ()
Sea Level Pressure  
Sea Level Pressure 29.59 in    
Wind  
Wind Speed 12 mph (WSW)    
Max Wind Speed 18 mph    
Max Gust Speed 26 mph    
Visibility 10 miles    
Events      
Averages and records for this station are not official NWS values.
T = Trace of Precipitation, MM = Missing Value Source: NWS Daily Summary

Daily Weather History Graph

Daily Weather History Graph

Search for Another Location

Airport or City:

Trip Planner

Search our weather history database for the weather conditions in past years. The results will help you decide how hot, cold, wet, or windy it might be!

Date:

Astronomy

Jan. 06, 2012 Rise Set
Actual Time 8:05 AM EST 5:09 PM EST
Civil Twilight 7:33 AM EST 5:42 PM EST
Nautical Twilight 6:57 AM EST 6:18 PM EST
Astronomical Twilight 6:22 AM EST 6:53 PM EST
Moon 2:58 PM EST (1/6) 5:45 AM EST (1/6)
Length of Visible Light 10h 08m
Length of Day
9h 03m
Waxing Gibbous, 93% of the Moon is Illuminated
Jan 6
Waxing Gibbous
Jan 9
Full
Jan 16
Last Quarter
Jan 23
New
Jan 30
First Quarter

Hourly Weather History & Observations

Time (EST) Temp. Windchill Dew Point Humidity Pressure Visibility Wind Dir Wind Speed Gust Speed Precip Events Conditions
12:13 AM 37.4 °F 28.2 °F 30.2 °F 75% 29.56 in 10.0 mi SW 16.1 mph 23.0 mph N/A   Clear
12:33 AM 37.4 °F 28.2 °F 32.0 °F 81% 29.56 in 10.0 mi WSW 16.1 mph 21.9 mph N/A   Clear
12:53 AM 37.4 °F 27.8 °F 32.0 °F 81% 29.55 in 10.0 mi WSW 17.3 mph 24.2 mph N/A   Clear
1:14 AM 37.4 °F 28.5 °F 32.0 °F 81% 29.56 in 10.0 mi WSW 15.0 mph 23.0 mph N/A   Clear
1:33 AM 37.4 °F 30.3 °F 32.0 °F 81% 29.56 in 10.0 mi WSW 10.4 mph - N/A   Clear
1:53 AM 37.4 °F 28.5 °F 32.0 °F 81% 29.56 in 10.0 mi WSW 15.0 mph 19.6 mph N/A   Clear
2:14 AM 37.4 °F 29.8 °F 32.0 °F 81% 29.56 in 10.0 mi West 11.5 mph - N/A   Clear
2:33 AM 37.4 °F 30.8 °F 32.0 °F 81% 29.56 in 10.0 mi WSW 9.2 mph - N/A   Clear
3:13 AM 35.6 °F 28.6 °F 32.0 °F 87% 29.56 in 10.0 mi WSW 9.2 mph - N/A   Clear
3:33 AM 37.4 °F 30.8 °F 32.0 °F 81% 29.56 in 10.0 mi WSW 9.2 mph - N/A   Clear
3:54 AM 37.4 °F 30.3 °F 32.0 °F 81% 29.56 in 10.0 mi WSW 10.4 mph - N/A   Clear
4:13 AM 37.4 °F 30.3 °F 32.0 °F 81% 29.56 in 10.0 mi WSW 10.4 mph - N/A   Clear
4:33 AM 37.4 °F 29.8 °F 32.0 °F 81% 29.56 in 10.0 mi SW 11.5 mph - N/A   Clear
4:54 AM 39.2 °F 32.5 °F 32.0 °F 75% 29.57 in 10.0 mi WSW 10.4 mph 18.4 mph N/A   Clear
5:13 AM 39.2 °F 32.0 °F 32.0 °F 75% 29.56 in 10.0 mi SW 11.5 mph 16.1 mph N/A   Clear
5:33 AM 39.2 °F 32.0 °F 32.0 °F 75% 29.56 in 10.0 mi SW 11.5 mph 17.3 mph N/A   Clear
5:54 AM 37.4 °F 30.8 °F 32.0 °F 81% 29.56 in 10.0 mi SW 9.2 mph - N/A   Clear
6:13 AM 37.4 °F 30.8 °F 32.0 °F 81% 29.56 in 10.0 mi SSW 9.2 mph - N/A   Clear
6:33 AM 37.4 °F 30.3 °F 32.0 °F 81% 29.56 in 10.0 mi SW 10.4 mph - N/A   Clear
6:54 AM 37.4 °F 31.4 °F 32.0 °F 81% 29.56 in 10.0 mi SW 8.1 mph - N/A   Clear
7:13 AM 37.4 °F 31.4 °F 32.0 °F 81% 29.55 in 10.0 mi SW 8.1 mph - N/A   Clear
7:34 AM 39.2 °F 32.5 °F 32.0 °F 75% 29.55 in 10.0 mi SW 10.4 mph 16.1 mph N/A   Clear
7:53 AM 39.2 °F 32.0 °F 32.0 °F 75% 29.56 in 10.0 mi SW 11.5 mph - N/A   Clear
8:13 AM 41.0 °F 33.9 °F 32.0 °F 70% 29.55 in 10.0 mi SW 12.7 mph 17.3 mph N/A   Clear
8:33 AM 41.0 °F 34.3 °F 32.0 °F 70% 29.55 in 10.0 mi WSW 11.5 mph 18.4 mph N/A   Clear
8:53 AM 41.0 °F 34.3 °F 32.0 °F 70% 29.55 in 10.0 mi SW 11.5 mph - N/A   Clear
9:14 AM 41.0 °F 33.9 °F 32.0 °F 70% 29.56 in 10.0 mi WSW 12.7 mph - N/A   Clear
9:33 AM 42.8 °F 35.8 °F 32.0 °F 66% 29.58 in 10.0 mi WSW 13.8 mph 19.6 mph N/A   Clear
9:53 AM 42.8 °F 35.1 °F 32.0 °F 66% 29.59 in 10.0 mi WSW 16.1 mph 23.0 mph N/A   Clear
10:14 AM 44.6 °F 36.9 °F 33.8 °F 66% 29.59 in 10.0 mi WSW 18.4 mph 26.5 mph N/A   Clear
10:33 AM 44.6 °F 37.2 °F 33.8 °F 66% 29.59 in 10.0 mi WSW 17.3 mph 24.2 mph N/A   Clear
10:54 AM 44.6 °F 38.4 °F 33.8 °F 66% 29.59 in 10.0 mi WSW 12.7 mph 21.9 mph N/A   Clear
11:14 AM 44.6 °F 37.8 °F 33.8 °F 66% 29.59 in 10.0 mi WSW 15.0 mph 19.6 mph N/A   Clear
11:33 AM 44.6 °F 38.4 °F 33.8 °F 66% 29.59 in 10.0 mi WSW 12.7 mph 20.7 mph N/A   Clear
11:54 AM 44.6 °F 38.1 °F 33.8 °F 66% 29.59 in 10.0 mi WSW 13.8 mph 18.4 mph N/A   Clear
12:13 PM 46.4 °F 39.5 °F 33.8 °F 62% 29.59 in 10.0 mi WSW 17.3 mph 23.0 mph N/A   Clear
1:14 PM 46.4 °F 40.7 °F 33.8 °F 62% 29.58 in 10.0 mi WSW 12.7 mph 19.6 mph N/A   Clear
1:34 PM 46.4 °F 40.1 °F 33.8 °F 62% 29.58 in 10.0 mi WSW 15.0 mph 19.6 mph N/A   Clear
1:53 PM 46.4 °F 40.4 °F 33.8 °F 62% 29.58 in 10.0 mi WSW 13.8 mph 18.4 mph N/A   Clear
2:12 PM 46.4 °F 40.7 °F 35.6 °F 66% 29.57 in 10.0 mi WSW 12.7 mph 21.9 mph N/A   Clear
2:27 PM 48.2 °F - 35.6 °F 62% 29.58 in 10.0 mi WSW 12.7 mph 21.9 mph N/A   Clear
2:53 PM 46.4 °F 41.1 °F 35.6 °F 66% 29.58 in 10.0 mi SW 11.5 mph 17.3 mph N/A   Scattered Clouds
3:13 PM 46.4 °F 41.5 °F 35.6 °F 66% 29.58 in 10.0 mi SW 10.4 mph 19.6 mph N/A   Scattered Clouds
3:34 PM 46.4 °F 42.4 °F 35.6 °F 66% 29.59 in 10.0 mi WSW 8.1 mph 17.3 mph N/A   Clear
3:53 PM 46.4 °F 41.9 °F 35.6 °F 66% 29.60 in 10.0 mi WSW 9.2 mph - N/A   Clear
4:14 PM 48.2 °F - 35.6 °F 62% 29.60 in 10.0 mi WSW 11.5 mph 17.3 mph N/A   Scattered Clouds
4:34 PM 46.4 °F 41.1 °F 35.6 °F 66% 29.61 in 10.0 mi WSW 11.5 mph - N/A   Overcast
4:54 PM 46.4 °F 42.4 °F 35.6 °F 66% 29.61 in 10.0 mi SW 8.1 mph - N/A   Overcast
5:14 PM 46.4 °F 42.4 °F 33.8 °F 62% 29.62 in 10.0 mi WSW 8.1 mph - N/A   Overcast
5:53 PM 44.6 °F 41.4 °F 33.8 °F 66% 29.63 in 10.0 mi SW 5.8 mph - N/A   Mostly Cloudy
5:57 PM 44.6 °F 41.4 °F 33.8 °F 66% 29.63 in 10.0 mi SW 5.8 mph - N/A   Mostly Cloudy
6:34 PM 44.6 °F 40.2 °F 33.8 °F 66% 29.64 in 10.0 mi SW 8.1 mph - N/A   Overcast
6:53 PM 44.6 °F 40.7 °F 33.8 °F 66% 29.64 in 10.0 mi WSW 6.9 mph - N/A   Overcast
7:14 PM 44.6 °F 40.7 °F 33.8 °F 66% 29.64 in 10.0 mi WSW 6.9 mph - N/A   Mostly Cloudy
7:34 PM 44.6 °F 40.7 °F 35.6 °F 71% 29.64 in 10.0 mi SW 6.9 mph - N/A   Mostly Cloudy
7:53 PM 44.6 °F 42.2 °F 33.8 °F 66% 29.65 in 10.0 mi SW 4.6 mph - N/A   Scattered Clouds
8:14 PM 44.6 °F 40.7 °F 35.6 °F 71% 29.65 in 10.0 mi WSW 6.9 mph - N/A   Scattered Clouds
8:34 PM 44.6 °F 38.8 °F 33.8 °F 66% 29.65 in 10.0 mi WSW 11.5 mph - N/A   Mostly Cloudy
8:53 PM 44.6 °F 39.2 °F 33.8 °F 66% 29.65 in 10.0 mi SW 10.4 mph - N/A   Overcast
9:14 PM 44.6 °F 38.8 °F 33.8 °F 66% 29.65 in 10.0 mi WSW 11.5 mph - N/A   Overcast
9:33 PM 44.6 °F 39.7 °F 33.8 °F 66% 29.65 in 10.0 mi WSW 9.2 mph - N/A   Mostly Cloudy
9:54 PM 42.8 °F 37.5 °F 33.8 °F 70% 29.64 in 10.0 mi West 9.2 mph - N/A   Mostly Cloudy
10:13 PM 42.8 °F 38.0 °F 33.8 °F 70% 29.64 in 10.0 mi West 8.1 mph - N/A   Overcast
10:34 PM 42.8 °F 38.0 °F 33.8 °F 70% 29.65 in 10.0 mi West 8.1 mph - N/A   Mostly Cloudy
10:53 PM 41.0 °F 37.1 °F 33.8 °F 76% 29.65 in 10.0 mi West 5.8 mph - N/A   Overcast
11:13 PM 41.0 °F 37.1 °F 33.8 °F 76% 29.65 in 10.0 mi West 5.8 mph - N/A   Overcast
11:34 PM 39.2 °F 35.0 °F 33.8 °F 81% 29.65 in 10.0 mi West 5.8 mph - N/A   Overcast
11:53 PM 39.2 °F 35.0 °F 33.8 °F 81% 29.63 in 10.0 mi West 5.8 mph - N/A   Overcast